Time;durP1;ratioP1;P1;durP2;ratioP2;P2;SDS_P1;SDS_P2;PMS_P1;PMS_P2;Temp;Humidity;BMP_temperature;BMP_pressure;BME280_temperature;BME280_humidity;BME280_pressure;Samples;Min_cycle;Max_cycle;Signal;HPM_P1;HPM_P2
2022/02/02 00:01:02;;;;;;;;;5.00;3.75;;;;;11.47;69.41;101536.06;4938608;28;45322;-61
2022/02/02 00:03:28;;;;;;;;;5.00;3.00;;;;;11.48;69.15;101532.47;4921896;28;45407;-61
2022/02/02 00:06:13;;;;;;;;;8.75;5.50;;;;;11.47;69.56;101518.44;4938899;28;45327;-61
2022/02/02 00:18:57;;;;;;;;;6.50;2.75;;;;;11.48;68.91;101535.91;4938299;28;45911;-61
2022/02/02 00:21:47;;;;;;;;;3.50;3.50;;;;;11.48;69.32;101543.81;4938446;28;45185;-60
2022/02/02 00:24:23;;;;;;;;;5.25;4.50;;;;;11.51;69.18;101537.50;4938091;28;45368;-61
2022/02/02 00:26:52;;;;;;;;;4.50;3.50;;;;;11.49;68.78;101531.50;4920791;28;45402;-60
2022/02/02 00:29:21;;;;;;;;;5.00;3.50;;;;;11.50;68.79;101523.47;4937966;28;46266;-61
2022/02/02 00:31:53;;;;;;;;;5.25;3.00;;;;;11.50;68.90;101530.56;4938440;28;45335;-61
2022/02/02 00:34:23;;;;;;;;;4.00;3.75;;;;;11.49;68.87;101518.34;4937836;28;45544;-61
2022/02/02 00:36:55;;;;;;;;;4.00;3.00;;;;;11.50;69.06;101533.19;4938089;28;45320;-61
2022/02/02 00:39:21;;;;;;;;;4.75;3.00;;;;;11.50;69.01;101535.81;4936828;28;46339;-62
2022/02/02 00:41:46;;;;;;;;;3.00;2.75;;;;;11.51;68.68;101537.50;4938037;28;45375;-60
2022/02/02 00:44:14;;;;;;;;;7.75;3.25;;;;;11.48;69.44;101529.84;4938079;28;45327;-61
2022/02/02 00:46:40;;;;;;;;;5.00;3.25;;;;;11.47;68.68;101531.59;4937658;28;45475;-61
2022/02/02 00:49:06;;;;;;;;;5.50;2.50;;;;;11.47;68.93;101528.97;4937619;28;55103;-61
2022/02/02 00:51:42;;;;;;;;;5.00;3.75;;;;;11.47;68.88;101536.88;4937993;28;45402;-61
2022/02/02 00:54:07;;;;;;;;;6.50;4.25;;;;;11.46;69.27;101544.91;4920654;28;45298;-60
2022/02/02 00:56:32;;;;;;;;;5.25;2.25;;;;;11.45;69.33;101538.78;4938056;28;45538;-61
2022/02/02 00:58:58;;;;;;;;;4.50;4.00;;;;;11.46;68.95;101531.75;4920183;28;59000;-61
2022/02/02 01:01:23;;;;;;;;;9.00;4.00;;;;;11.45;69.29;101538.78;4936814;28;69200;-61
2022/02/02 01:03:49;;;;;;;;;3.00;3.00;;;;;11.46;69.21;101552.78;4937970;28;45360;-62
2022/02/02 01:06:18;;;;;;;;;4.25;3.00;;;;;11.45;69.10;101551.94;4937880;28;45390;-61
2022/02/02 01:19:35;;;;;;;;;4.75;4.00;;;;;11.43;68.99;101538.91;4937725;28;45854;-62
2022/02/02 01:29:54;;;;;;;;;5.50;4.00;;;;;11.41;69.32;101548.72;4937281;28;45475;-61
2022/02/02 01:32:19;;;;;;;;;7.00;4.00;;;;;11.41;69.39;101555.75;4937136;28;45476;-61
2022/02/02 01:34:44;;;;;;;;;7.50;3.50;;;;;11.40;69.39;101547.03;4936643;28;62813;-61
2022/02/02 01:37:10;;;;;;;;;6.00;3.50;;;;;11.40;69.10;101554.09;4937294;28;45209;-61
2022/02/02 01:39:36;;;;;;;;;4.50;3.00;;;;;11.38;69.04;101548.94;4937396;28;45318;-61
2022/02/02 01:42:05;;;;;;;;;6.25;4.75;;;;;11.37;69.13;101544.63;4937247;28;45770;-61
2022/02/02 01:47:00;;;;;;;;;8.75;5.00;;;;;11.35;69.63;101546.56;4937438;28;45405;-60
2022/02/02 01:56:54;;;;;;;;;5.75;2.75;;;;;11.31;69.41;101547.72;4940646;28;45221;-62
2022/02/02 01:59:37;;;;;;;;;7.50;2.75;;;;;11.30;69.27;101546.06;4939348;28;73011;-60
2022/02/02 02:02:03;;;;;;;;;5.00;4.00;;;;;11.29;69.21;101547.00;4940360;28;45185;-61
2022/02/02 02:04:28;;;;;;;;;5.75;3.75;;;;;11.27;69.63;101556.81;4922888;28;45204;-61
2022/02/02 02:06:53;;;;;;;;;5.25;4.25;;;;;11.28;69.24;101561.13;4939645;28;67352;-61
2022/02/02 02:09:20;;;;;;;;;6.25;3.75;;;;;11.26;69.10;101560.41;4939344;28;73674;-61
2022/02/02 02:11:58;;;;;;;;;4.75;3.50;;;;;11.24;69.61;101551.78;4940401;28;45447;-61
2022/02/02 02:14:41;;;;;;;;;4.00;4.00;;;;;11.25;69.67;101556.09;4940469;28;45366;-60
2022/02/02 02:17:06;;;;;;;;;4.25;3.00;;;;;11.23;69.81;101558.00;4940410;28;45310;-61
2022/02/02 02:19:32;;;;;;;;;4.00;4.00;;;;;11.21;69.73;101563.38;4939367;28;71707;-61
2022/02/02 02:21:58;;;;;;;;;8.00;3.00;;;;;11.22;69.64;101561.56;4940006;28;45263;-61
2022/02/02 02:24:23;;;;;;;;;7.25;4.00;;;;;11.22;69.88;101561.56;4939738;28;45283;-60
2022/02/02 02:26:49;;;;;;;;;4.25;4.25;;;;;11.22;69.87;101559.78;4939688;28;45350;-61
2022/02/02 02:29:37;;;;;;;;;6.00;4.00;;;;;11.20;69.98;101555.59;4939753;28;47112;-62
2022/02/02 02:56:21;;;;;;;;;5.00;4.00;;;;;11.21;69.87;101550.22;4939849;28;45416;-61
2022/02/02 02:59:00;;;;;;;;;5.75;4.75;;;;;11.22;69.99;101559.78;4939678;28;45416;-61
2022/02/02 03:58:45;;;;;;;;;6.25;5.75;;;;;11.22;71.14;101559.78;4938718;28;45399;-61
2022/02/02 04:06:28;;;;;;;;;5.50;4.75;;;;;11.21;70.99;101567.78;4938590;28;46007;-61
2022/02/02 04:08:54;;;;;;;;;6.50;6.00;;;;;11.22;71.21;101558.94;4938538;28;45236;-62
2022/02/02 04:11:36;;;;;;;;;9.50;4.75;;;;;11.22;71.08;101561.56;4938778;28;45299;-61
2022/02/02 04:52:09;;;;;;;;;4.00;4.00;;;;;10.99;70.75;101574.66;4938123;28;45347;-61
2022/02/02 04:54:42;;;;;;;;;3.50;3.50;;;;;10.97;70.41;101571.31;4920910;28;45291;-61
2022/02/02 04:57:42;;;;;;;;;4.25;4.00;;;;;10.95;70.51;101575.84;4920713;28;45296;-61
2022/02/02 05:03:31;;;;;;;;;7.50;7.50;;;;;10.90;70.64;101567.44;4937750;28;45912;-61
2022/02/02 05:07:56;;;;;;;;;7.00;4.00;;;;;10.86;70.22;101566.84;4937885;28;45573;-61
2022/02/02 05:10:35;;;;;;;;;4.50;4.25;;;;;10.85;70.75;101562.53;4920507;28;46608;-61
2022/02/02 05:18:19;;;;;;;;;4.00;3.00;;;;;10.78;70.49;101566.56;4937823;28;46085;-60
2022/02/02 05:21:17;;;;;;;;;4.50;4.50;;;;;10.75;70.40;101567.59;4920298;28;47146;-61
2022/02/02 05:50:52;;;;;;;;;7.25;6.00;;;;;10.74;70.67;101602.72;4912675;28;45205;-60
2022/02/02 05:53:19;;;;;;;;;9.75;6.50;;;;;10.75;70.68;101604.41;4909967;28;46996;-58
2022/02/02 05:55:45;;;;;;;;;6.00;6.00;;;;;10.77;70.66;101606.94;4907357;28;45877;-59
2022/02/02 05:58:10;;;;;;;;;6.25;6.00;;;;;10.77;70.97;101606.94;4940527;28;45362;-59
2022/02/02 06:00:37;;;;;;;;;9.75;7.50;;;;;10.78;71.12;101612.06;4939493;28;70443;-60
2022/02/02 06:03:02;;;;;;;;;10.25;7.00;;;;;10.80;71.12;101609.34;4923263;28;45984;-61
2022/02/02 06:05:29;;;;;;;;;9.25;9.00;;;;;10.80;70.89;101612.81;4922412;28;45408;-59
2022/02/02 06:07:55;;;;;;;;;10.00;8.75;;;;;10.80;71.27;101618.06;4940395;28;45278;-62
2022/02/02 06:10:23;;;;;;;;;11.50;10.00;;;;;10.81;71.26;101614.47;4940502;28;45407;-59
2022/02/02 06:12:48;;;;;;;;;11.75;8.75;;;;;10.84;71.03;101613.44;4940200;28;45931;-61
2022/02/02 06:15:16;;;;;;;;;7.75;7.00;;;;;10.83;70.80;101623.09;4906897;28;45383;-61
2022/02/02 06:17:45;;;;;;;;;12.00;7.50;;;;;10.85;70.61;101623.00;4923040;28;45372;-59
2022/02/02 06:20:11;;;;;;;;;11.00;11.00;;;;;10.87;70.83;101628.97;4923029;28;45499;-61
2022/02/02 06:22:41;;;;;;;;;13.50;11.75;;;;;10.88;70.58;101627.19;4939867;28;45546;-59
2022/02/02 06:25:24;;;;;;;;;18.25;12.00;;;;;10.88;70.55;101621.94;4907159;28;45376;-61
2022/02/02 06:27:57;;;;;;;;;11.75;11.50;;;;;10.90;70.60;101622.66;4906873;28;45252;-60
2022/02/02 06:30:23;;;;;;;;;13.25;11.00;;;;;10.91;70.79;101621.72;4939839;28;45390;-58
2022/02/02 06:32:52;;;;;;;;;11.00;11.00;;;;;10.92;71.02;101631.28;4939758;28;45922;-62
2022/02/02 06:35:19;;;;;;;;;12.00;10.75;;;;;10.94;70.52;101629.38;4939624;28;45699;-59
2022/02/02 06:37:44;;;;;;;;;7.50;7.00;;;;;10.94;70.42;101632.00;4939147;28;45385;-61
2022/02/02 06:40:10;;;;;;;;;9.00;7.00;;;;;10.95;70.25;101641.56;4921770;28;67280;-60
2022/02/02 06:42:36;;;;;;;;;7.50;7.50;;;;;10.96;70.92;101641.44;4939293;28;54460;-61
2022/02/02 06:45:02;;;;;;;;;9.75;8.75;;;;;10.99;70.85;101643.03;4939829;28;45809;-60
2022/02/02 06:47:28;;;;;;;;;9.00;9.00;;;;;10.99;70.68;101627.25;4939316;28;45254;-61
2022/02/02 06:50:03;;;;;;;;;11.00;8.25;;;;;11.01;70.44;101624.50;4922003;28;56398;-60
2022/02/02 06:52:30;;;;;;;;;9.75;9.25;;;;;11.00;70.55;101634.19;4922285;28;47407;-61
2022/02/02 06:55:11;;;;;;;;;8.25;7.75;;;;;11.01;70.76;101635.03;4922769;28;46098;-61
2022/02/02 06:57:47;;;;;;;;;10.00;7.75;;;;;11.02;70.45;101636.69;4939701;28;45298;-61
2022/02/02 07:00:41;;;;;;;;;10.25;10.25;;;;;11.03;70.36;101635.75;4923290;28;45294;-62
2022/02/02 07:06:07;;;;;;;;;14.00;12.75;;;;;11.04;70.34;101646.16;4923007;28;45962;-61
2022/02/02 07:08:49;;;;;;;;;40.00;35.00;;;;;11.06;70.44;101660.06;4922199;28;45554;-60
2022/02/02 07:11:56;;;;;;;;;17.25;16.00;;;;;11.06;70.56;101654.78;4939447;28;45444;-60
2022/02/02 07:17:06;;;;;;;;;19.00;13.00;;;;;11.08;70.34;101655.53;4938799;28;47390;-61
2022/02/02 07:19:35;;;;;;;;;17.50;15.75;;;;;11.08;69.95;101660.78;4937599;28;45398;-60
2022/02/02 07:29:51;;;;;;;;;19.25;18.00;;;;;11.12;69.90;101674.53;4906538;28;45421;-61
2022/02/02 07:32:21;;;;;;;;;18.00;16.50;;;;;11.13;70.06;101666.53;4921471;28;45450;-61
2022/02/02 07:35:11;;;;;;;;;23.00;20.50;;;;;11.13;70.14;101669.16;4938779;28;47311;-61
2022/02/02 07:37:43;;;;;;;;;16.75;16.75;;;;;11.14;70.41;101670.00;4922480;28;45332;-61
2022/02/02 07:40:10;;;;;;;;;19.25;17.50;;;;;11.16;70.22;101675.13;4921934;28;45416;-61
2022/02/02 07:42:40;;;;;;;;;21.00;16.00;;;;;11.13;70.23;101674.41;4938864;28;45569;-60
2022/02/02 07:45:09;;;;;;;;;16.75;14.00;;;;;11.16;70.30;101675.13;4938728;28;47066;-61
2022/02/02 07:47:41;;;;;;;;;13.50;12.75;;;;;11.17;70.10;101682.94;4921278;28;45283;-61
2022/02/02 07:50:07;;;;;;;;;17.25;17.00;;;;;11.16;70.27;101683.03;4939050;28;45367;-61
2022/02/02 07:52:33;;;;;;;;;12.25;12.25;;;;;11.18;70.11;101689.03;4938965;28;45450;-61
2022/02/02 07:55:01;;;;;;;;;15.50;14.75;;;;;11.18;69.88;101689.88;4938750;28;45973;-61
2022/02/02 07:57:28;;;;;;;;;27.25;20.50;;;;;11.19;69.96;101690.69;4938675;28;45335;-61
2022/02/02 07:59:56;;;;;;;;;20.50;18.50;;;;;11.19;70.28;101685.44;4938107;28;45366;-61
2022/02/02 08:02:30;;;;;;;;;20.25;16.50;;;;;11.19;70.52;101694.19;4921669;28;45427;-61
2022/02/02 08:04:56;;;;;;;;;14.25;14.00;;;;;11.20;70.27;101701.13;4938478;28;46397;-61
2022/02/02 08:07:26;;;;;;;;;17.75;15.50;;;;;11.23;70.46;101702.69;4938651;28;45445;-61
2022/02/02 08:10:07;;;;;;;;;13.00;10.25;;;;;11.23;70.64;101703.53;4938849;28;45314;-61
2022/02/02 08:12:42;;;;;;;;;17.25;14.00;;;;;11.24;70.15;101707.00;4907313;28;45335;-60
2022/02/02 08:15:09;;;;;;;;;14.25;12.25;;;;;11.24;70.83;101710.47;4938313;28;46219;-61
2022/02/02 08:17:34;;;;;;;;;13.50;13.25;;;;;11.24;71.05;101726.25;4938577;28;45282;-61
2022/02/02 08:20:00;;;;;;;;;13.75;12.25;;;;;11.25;71.06;101722.69;4920543;28;59899;-61
2022/02/02 08:22:29;;;;;;;;;15.00;11.75;;;;;11.25;70.93;101722.69;4938031;28;54714;-61
2022/02/02 08:24:54;;;;;;;;;14.00;12.50;;;;;11.24;71.21;101714.88;4938297;28;45443;-61
2022/02/02 08:27:20;;;;;;;;;12.25;11.75;;;;;11.25;71.47;101717.44;4938093;28;48555;-61
2022/02/02 08:29:46;;;;;;;;;15.00;12.50;;;;;11.25;71.03;101721.84;4937503;28;45353;-61
2022/02/02 08:32:11;;;;;;;;;12.00;11.00;;;;;11.24;71.10;101721.00;4938250;28;45410;-61
2022/02/02 08:34:44;;;;;;;;;14.50;13.00;;;;;11.25;71.40;101721.84;4920614;28;47543;-61
2022/02/02 08:37:09;;;;;;;;;13.50;12.25;;;;;11.25;71.31;101732.34;4921432;28;45893;-61
2022/02/02 08:40:07;;;;;;;;;13.25;10.75;;;;;11.23;71.60;101724.59;4920785;28;45583;-61
2022/02/02 08:42:32;;;;;;;;;10.00;10.00;;;;;11.24;71.86;101725.41;4937741;28;45399;-61
2022/02/02 08:45:15;;;;;;;;;12.75;9.75;;;;;11.23;71.49;101724.59;4937987;28;46195;-61
2022/02/02 08:47:46;;;;;;;;;10.00;9.25;;;;;11.23;71.56;101719.31;4920816;28;45850;-61
2022/02/02 08:50:12;;;;;;;;;15.25;12.00;;;;;11.24;72.28;101728.03;4920769;28;45297;-61
2022/02/02 08:52:49;;;;;;;;;17.75;12.75;;;;;11.24;72.02;101728.91;4937518;28;45649;-60
2022/02/02 08:55:17;;;;;;;;;10.75;9.50;;;;;11.26;71.98;101728.78;4937336;28;45429;-61
2022/02/02 08:57:48;;;;;;;;;15.25;11.00;;;;;11.25;72.17;101720.06;4920592;28;45988;-61
2022/02/02 09:00:21;;;;;;;;;16.25;11.25;;;;;11.27;71.76;101709.41;4924594;28;45338;-60
2022/02/02 09:05:17;;;;;;;;;11.00;10.25;;;;;11.27;72.00;101709.41;4943582;28;45364;-61
2022/02/02 09:05:32;;;;;;;;;14.75;14.75;;;;;11.30;71.97;101703.91;4962919;28;45866;-61
2022/02/02 09:07:59;;;;;;;;;12.50;11.25;;;;;11.32;71.97;101702.00;4962465;28;67889;-60
2022/02/02 09:20:00;;;;;;;;;18.25;14.00;;;;;11.35;72.24;101703.59;4963576;28;45403;-60
2022/02/02 09:24:19;;;;;;;;;15.50;12.75;;;;;11.91;71.30;101697.69;4942352;28;45384;-61
2022/02/02 09:32:31;;;;;;;;;9.75;9.75;;;;;12.19;69.93;101706.13;4963191;28;45316;-61
2022/02/02 09:34:57;;;;;;;;;11.25;10.75;;;;;12.24;69.74;101709.25;4963282;28;45332;-60
2022/02/02 09:37:24;;;;;;;;;14.00;12.75;;;;;12.27;69.24;101709.03;4963035;28;46056;-61
2022/02/02 09:40:01;;;;;;;;;11.25;9.00;;;;;12.31;69.20;101709.63;4963122;28;45809;-61
2022/02/02 09:42:26;;;;;;;;;12.50;10.50;;;;;12.36;69.58;101711.91;4961948;28;45295;-60
2022/02/02 09:44:56;;;;;;;;;11.00;9.75;;;;;12.43;68.82;101713.13;4929114;28;59267;-61
2022/02/02 09:47:27;;;;;;;;;11.00;9.00;;;;;12.49;68.82;101714.41;4962902;28;46145;-62
2022/02/02 09:50:18;;;;;;;;;12.75;10.00;;;;;12.52;67.92;101708.91;4946522;28;45283;-61
2022/02/02 09:52:42;;;;;;;;;10.25;10.25;;;;;12.54;67.64;101712.28;4962581;28;45362;-61
2022/02/02 09:55:15;;;;;;;;;11.50;11.00;;;;;12.55;68.14;101717.44;4963081;28;45264;-61
2022/02/02 09:58:15;;;;;;;;;12.50;8.50;;;;;12.53;67.31;101718.50;4962581;28;45381;-61
2022/02/02 10:01:04;;;;;;;;;9.00;9.00;;;;;12.50;67.26;101722.22;4962856;28;46007;-61
2022/02/02 10:06:24;;;;;;;;;8.50;8.00;;;;;12.46;67.44;101726.88;4962962;28;45386;-61
2022/02/02 10:09:11;;;;;;;;;15.25;11.75;;;;;12.44;67.35;101720.06;4947519;28;45431;-61
2022/02/02 10:12:41;;;;;;;;;12.25;11.00;;;;;12.42;67.46;101727.25;4960501;28;45334;-61
2022/02/02 10:14:24;;;;;;;;;14.50;12.25;;;;;12.40;66.99;101739.72;4934656;28;45334;-61
2022/02/02 10:16:50;;;;;;;;;9.50;9.00;;;;;12.36;67.27;101733.84;4959574;28;45250;-61
2022/02/02 10:19:16;;;;;;;;;10.75;10.00;;;;;12.34;66.96;101740.19;4959221;28;45413;-60
2022/02/02 10:21:42;;;;;;;;;16.75;15.25;;;;;12.30;67.03;101739.59;4959433;28;45218;-61
2022/02/02 10:24:08;;;;;;;;;17.25;14.50;;;;;12.27;67.07;101732.75;4942024;28;45287;-61
2022/02/02 10:26:33;;;;;;;;;22.75;19.50;;;;;12.25;67.02;101753.09;4941845;28;45196;-61
2022/02/02 10:29:07;;;;;;;;;15.75;13.75;;;;;12.23;66.65;101741.00;4924309;28;63252;-60
2022/02/02 10:31:40;;;;;;;;;10.75;9.00;;;;;12.20;66.59;101739.44;4959266;28;45740;-61
2022/02/02 10:34:15;;;;;;;;;7.50;7.50;;;;;12.17;66.85;101729.16;4959349;28;45333;-61
2022/02/02 10:36:41;;;;;;;;;11.75;11.75;;;;;12.14;66.58;101738.13;4959475;28;45396;-61
2022/02/02 10:39:13;;;;;;;;;12.25;11.25;;;;;12.13;66.49;101746.97;4941747;28;45373;-60
2022/02/02 10:41:45;;;;;;;;;12.75;7.50;;;;;12.12;66.67;101747.09;4959043;28;45352;-61
2022/02/02 10:44:19;;;;;;;;;11.75;10.75;;;;;12.08;67.13;101745.66;4959096;28;45337;-61
2022/02/02 10:49:23;;;;;;;;;10.50;9.25;;;;;12.05;66.62;101751.16;4959086;28;46178;-61
2022/02/02 10:51:59;;;;;;;;;11.00;9.00;;;;;12.02;66.81;101763.59;4958835;28;45363;-61
2022/02/02 10:54:44;;;;;;;;;14.75;13.75;;;;;12.02;67.10;101763.59;4957858;28;45427;-60
2022/02/02 11:00:00;;;;;;;;;12.50;9.50;;;;;11.97;66.17;101752.53;4958785;28;45294;-60
2022/02/02 11:07:54;;;;;;;;;15.25;15.25;;;;;11.88;66.25;101745.31;4958734;28;45291;-61
2022/02/02 11:10:20;;;;;;;;;14.50;11.50;;;;;11.85;65.79;101751.66;4958597;28;45357;-61
2022/02/02 11:12:46;;;;;;;;;19.00;15.00;;;;;11.84;65.75;101743.88;4924254;28;72949;-61
2022/02/02 11:15:18;;;;;;;;;13.50;11.00;;;;;11.82;65.57;101748.41;4941414;28;45346;-60
2022/02/02 11:17:48;;;;;;;;;14.50;12.00;;;;;11.80;65.77;101751.16;4941311;28;45578;-61
2022/02/02 11:20:14;;;;;;;;;11.50;10.00;;;;;11.79;65.72;101748.63;4941205;28;45358;-61
2022/02/02 11:22:50;;;;;;;;;14.00;12.00;;;;;11.78;65.56;101755.72;4940575;28;45344;-61
2022/02/02 11:25:15;;;;;;;;;18.25;16.00;;;;;11.79;65.73;101759.16;4958337;28;45449;-61
2022/02/02 11:27:48;;;;;;;;;8.67;8.33;;;;;11.77;65.25;101754.03;4958604;28;45365;-61
2022/02/02 11:30:23;;;;;;;;;5.50;5.00;;;;;11.77;65.48;101753.16;4957557;28;46307;-60
2022/02/02 11:32:52;;;;;;;;;12.25;9.25;;;;;11.77;65.70;101759.28;4958278;28;45994;-61
2022/02/02 11:35:37;;;;;;;;;16.25;13.50;;;;;11.79;65.90;101746.00;4958225;28;45236;-61
2022/02/02 11:38:17;;;;;;;;;11.50;9.75;;;;;11.80;65.95;101747.69;4940850;28;45382;-61
2022/02/02 11:41:32;;;;;;;;;13.00;10.75;;;;;11.82;65.70;101754.53;4956821;28;46195;-60
2022/02/02 11:49:23;;;;;;;;;18.75;17.25;;;;;11.88;65.58;101740.91;4926648;28;45540;-60
2022/02/02 11:51:50;;;;;;;;;21.00;18.75;;;;;11.91;66.23;101747.72;4957850;28;45280;-60
2022/02/02 11:54:31;;;;;;;;;16.25;15.25;;;;;11.93;65.85;101751.09;4957987;28;45397;-60
2022/02/02 11:57:04;;;;;;;;;10.25;8.25;;;;;11.94;65.80;101747.50;4958225;28;45237;-60
2022/02/02 12:02:31;;;;;;;;;12.00;9.75;;;;;11.96;65.17;101747.38;4957770;28;45375;-60
2022/02/02 12:05:08;;;;;;;;;14.00;10.50;;;;;11.96;65.75;101748.22;4956262;28;45851;-60
2022/02/02 12:10:41;;;;;;;;;14.75;12.50;;;;;11.99;65.24;101736.59;4952270;28;45415;-60
2022/02/02 12:57:02;;;;;;;;;11.00;11.00;;;;;12.32;64.93;101730.59;4956808;28;45256;-60
2022/02/02 13:02:08;;;;;;;;;8.50;8.00;;;;;12.36;65.10;101720.66;4956739;28;45361;-61
2022/02/02 13:04:34;;;;;;;;;14.75;12.25;;;;;12.37;64.95;101724.97;4939915;28;45406;-60
2022/02/02 13:07:11;;;;;;;;;8.00;7.50;;;;;12.39;64.48;101714.31;4956763;28;46337;-61
2022/02/02 13:09:37;;;;;;;;;9.25;9.00;;;;;12.41;65.01;101712.41;4956653;28;46012;-61
2022/02/02 13:12:22;;;;;;;;;16.00;12.75;;;;;12.42;64.98;101714.06;4956501;28;45353;-60
2022/02/02 13:17:24;;;;;;;;;13.50;11.75;;;;;12.43;64.42;101713.97;4956296;28;45472;-60
2022/02/02 13:20:00;;;;;;;;;9.50;8.50;;;;;12.45;64.65;101721.75;4938617;28;61819;-60
2022/02/02 13:22:29;;;;;;;;;16.00;14.25;;;;;12.48;64.65;101724.16;4955006;28;45192;-61
2022/02/02 13:24:54;;;;;;;;;45.75;36.00;;;;;12.48;64.54;101726.78;4955115;28;45412;-60
2022/02/02 13:27:21;;;;;;;;;13.00;11.25;;;;;12.47;64.48;101731.19;4938989;28;46145;-61
2022/02/02 13:29:51;;;;;;;;;9.75;9.25;;;;;12.47;63.93;101731.19;4956059;28;45427;-60
2022/02/02 13:32:28;;;;;;;;;10.00;8.50;;;;;12.46;64.21;101724.25;4955844;28;45228;-60
2022/02/02 14:33:18;;;;;;;;;18.75;14.25;;;;;12.35;62.37;101721.63;4959320;28;45265;-61
2022/02/02 14:35:47;;;;;;;;;13.25;13.25;;;;;12.36;62.16;101719.81;4959450;28;45432;-60
2022/02/02 14:38:14;;;;;;;;;12.00;12.00;;;;;12.36;62.35;101725.09;4959200;28;45467;-61
2022/02/02 14:43:16;;;;;;;;;11.25;10.50;;;;;12.37;62.12;101726.75;4959061;28;45245;-60
2022/02/02 14:45:47;;;;;;;;;10.25;9.75;;;;;12.37;61.96;101746.06;4959258;28;45373;-61
2022/02/02 14:48:33;;;;;;;;;14.75;13.75;;;;;12.37;61.89;101750.50;4957845;28;45385;-60
2022/02/02 15:08:52;;;;;;;;;4.00;3.50;;;;;12.29;61.56;101732.63;4958638;28;45350;-60
2022/02/02 15:16:48;;;;;;;;;4.00;4.00;;;;;12.27;61.35;101740.66;4956498;28;45414;-60
2022/02/02 15:24:09;;;;;;;;;6.00;6.00;;;;;12.24;61.08;101740.88;4943708;28;45730;-59
2022/02/02 15:29:56;;;;;;;;;3.25;3.25;;;;;12.24;61.45;101747.97;4958271;28;45333;-60
2022/02/02 15:31:51;;;;;;;;;7.00;6.00;;;;;12.22;61.46;101755.97;4952819;28;45906;-60
2022/02/02 15:34:25;;;;;;;;;5.00;4.00;;;;;12.22;60.97;101753.31;4957725;28;46091;-60
2022/02/02 15:39:20;;;;;;;;;4.75;4.00;;;;;12.19;61.37;101747.47;4957992;28;45332;-60
2022/02/02 15:42:12;;;;;;;;;7.00;6.00;;;;;12.17;61.10;101745.78;4957921;28;45366;-60
2022/02/02 15:54:44;;;;;;;;;4.75;4.00;;;;;12.13;61.49;101733.81;4958146;28;45545;-60
2022/02/02 15:58:27;;;;;;;;;12.50;9.50;;;;;12.10;61.53;101726.13;4957998;28;45782;-60
2022/02/02 16:03:38;;;;;;;;;12.25;10.00;;;;;12.06;61.48;101722.03;4958017;28;45372;-60
2022/02/02 16:06:10;;;;;;;;;16.50;12.50;;;;;12.06;61.33;101726.50;4957283;28;45437;-60
2022/02/02 16:08:38;;;;;;;;;16.50;14.50;;;;;12.06;61.06;101721.22;4957474;28;45868;-61
2022/02/02 16:11:17;;;;;;;;;14.75;12.25;;;;;12.06;61.34;101726.50;4957808;28;45312;-60
2022/02/02 16:13:50;;;;;;;;;16.00;16.00;;;;;12.06;60.83;101722.03;4957850;28;45593;-61
2022/02/02 16:18:52;;;;;;;;;16.75;15.00;;;;;12.05;61.10;101725.63;4957617;28;45416;-61
2022/02/02 16:35:31;;;;;;;;;12.50;11.50;;;;;11.96;61.29;101711.34;4957754;28;45325;-60
2022/02/02 16:37:59;;;;;;;;;19.25;16.00;;;;;11.94;60.71;101708.00;4956826;28;46142;-60
2022/02/02 16:40:31;;;;;;;;;18.75;16.00;;;;;11.93;60.93;101702.81;4957023;28;45434;-60
2022/02/02 16:45:33;;;;;;;;;15.75;12.50;;;;;11.88;61.49;101697.91;4957289;28;45407;-61
2022/02/02 16:47:58;;;;;;;;;21.25;18.50;;;;;11.86;61.45;101694.56;4956762;28;46177;-59
2022/02/02 16:50:29;;;;;;;;;14.50;14.00;;;;;11.84;61.16;101689.41;4956401;28;63695;-60
2022/02/02 16:52:58;;;;;;;;;18.75;14.25;;;;;11.84;61.35;101686.78;4939679;28;45369;-59
2022/02/02 16:55:38;;;;;;;;;24.50;19.00;;;;;11.82;60.87;101686.06;4937981;28;45376;-60
2022/02/02 17:30:42;;;;;;;;;10.25;8.50;;;;;11.71;61.00;101704.47;4959910;28;45673;-60
2022/02/02 17:33:19;;;;;;;;;9.00;7.00;;;;;11.69;60.56;101709.00;4960325;28;45355;-60
2022/02/02 18:03:19;;;;;;;;;6.75;5.25;;;;;11.56;61.11;101717.78;4959480;28;45373;-60
2022/02/02 18:20:48;;;;;;;;;9.50;7.25;;;;;11.51;61.48;101719.94;4959208;28;45461;-60
2022/02/02 18:23:30;;;;;;;;;13.00;11.75;;;;;11.49;61.43;101713.09;4959007;28;46308;-60
2022/02/02 18:28:41;;;;;;;;;8.00;7.00;;;;;11.47;61.00;101720.28;4959433;28;45470;-60
2022/02/02 18:34:09;;;;;;;;;8.25;7.25;;;;;11.45;60.87;101716.91;4958456;28;46105;-60
2022/02/02 18:36:56;;;;;;;;;8.00;8.00;;;;;11.46;60.91;101721.22;4959181;28;45811;-60
2022/02/02 18:52:45;;;;;;;;;8.50;7.50;;;;;11.47;60.54;101707.13;4959040;28;45335;-60
2022/02/02 18:55:22;;;;;;;;;9.00;6.75;;;;;11.46;60.53;101711.53;4958891;28;47011;-60
2022/02/02 18:58:10;;;;;;;;;8.50;6.50;;;;;11.46;60.49;101711.53;4941361;28;45436;-61
2022/02/02 19:00:50;;;;;;;;;10.50;8.50;;;;;11.45;60.24;101706.38;4941435;28;45354;-59
2022/02/02 19:03:46;;;;;;;;;12.50;9.25;;;;;11.43;60.63;101706.47;4959025;28;45337;-60
2022/02/02 19:55:25;;;;;;;;;8.00;5.00;;;;;11.21;60.01;101705.44;4958508;28;45297;-61
2022/02/02 20:03:53;;;;;;;;;7.25;7.00;;;;;11.22;59.91;101711.53;4927764;28;45897;-60
2022/02/02 20:07:01;;;;;;;;;10.50;8.25;;;;;11.21;59.45;101701.94;4957836;28;45398;-60
2022/02/02 20:11:37;;;;;;;;;12.75;9.00;;;;;11.20;59.21;101690.59;4957880;28;45383;-60
2022/02/02 20:14:03;;;;;;;;;15.75;12.00;;;;;11.21;59.44;101689.66;4957865;28;45805;-60
2022/02/02 20:16:28;;;;;;;;;8.00;8.00;;;;;11.21;59.26;101687.03;4940714;28;45345;-61
2022/02/02 20:18:57;;;;;;;;;9.00;9.00;;;;;11.23;59.71;101697.41;4957043;28;70422;-61
2022/02/02 20:21:25;;;;;;;;;13.00;13.00;;;;;11.21;59.17;101697.56;4957600;28;46280;-60
2022/02/02 20:23:51;;;;;;;;;14.25;14.00;;;;;11.23;59.13;101700.06;4957233;28;45346;-60
2022/02/02 20:26:19;;;;;;;;;11.75;10.00;;;;;11.24;59.43;101720.16;4957755;28;45371;-60
2022/02/02 20:28:44;;;;;;;;;11.00;9.50;;;;;11.22;59.31;101701.00;4957576;28;45477;-60
2022/02/02 20:31:10;;;;;;;;;8.50;7.00;;;;;11.24;58.67;101709.63;4957445;28;49635;-60
2022/02/02 20:33:35;;;;;;;;;12.00;10.50;;;;;11.24;58.62;101709.63;4956711;28;67330;-61
2022/02/02 20:36:01;;;;;;;;;12.75;11.00;;;;;11.22;58.71;101717.66;4957461;28;45253;-60
2022/02/02 20:38:27;;;;;;;;;12.00;11.50;;;;;11.21;59.05;101715.97;4957608;28;45466;-60
2022/02/02 20:40:52;;;;;;;;;11.25;8.75;;;;;11.21;58.59;101715.97;4957238;28;45246;-60
2022/02/02 21:05:24;;;;;;;;;10.00;8.25;;;;;11.19;57.72;101715.22;4957211;28;45229;-60
2022/02/02 21:10:32;;;;;;;;;8.50;7.50;;;;;11.17;58.22;101713.66;4957224;28;45480;-60
2022/02/02 21:15:42;;;;;;;;;14.00;10.00;;;;;11.17;58.46;101718.91;4957129;28;45251;-60
2022/02/02 21:18:20;;;;;;;;;8.00;8.00;;;;;11.17;58.04;101719.75;4957260;28;45227;-61
2022/02/02 21:26:12;;;;;;;;;13.25;8.25;;;;;11.16;57.76;101723.34;4956890;28;45270;-60
2022/02/02 21:28:35;;;;;;;;;8.50;7.25;;;;;11.16;58.26;101719.84;4957061;28;45289;-60
2022/02/02 21:31:00;;;;;;;;;8.50;7.00;;;;;11.16;57.98;101706.72;4957040;28;45413;-60
2022/02/02 21:33:26;;;;;;;;;8.00;7.00;;;;;11.14;57.91;101710.28;4938434;28;74271;-61
2022/02/02 21:35:54;;;;;;;;;9.00;8.00;;;;;11.14;57.87;101715.53;4956710;28;45453;-60
2022/02/02 21:40:50;;;;;;;;;8.75;7.00;;;;;11.13;57.42;101710.41;4956850;28;45529;-60
2022/02/02 21:43:15;;;;;;;;;6.50;6.00;;;;;11.13;57.72;101710.41;4939128;28;46304;-60
2022/02/02 21:45:40;;;;;;;;;7.00;6.00;;;;;11.12;57.33;101706.97;4955860;28;67996;-61
2022/02/02 21:48:06;;;;;;;;;7.00;6.00;;;;;11.11;57.48;101705.28;4956095;28;60379;-60
2022/02/02 21:50:44;;;;;;;;;7.50;5.25;;;;;11.10;57.57;101703.59;4955911;28;65762;-60
2022/02/02 21:53:09;;;;;;;;;8.50;5.50;;;;;11.10;56.77;101703.59;4956499;28;47165;-60
2022/02/02 21:55:35;;;;;;;;;7.00;6.00;;;;;11.10;57.19;101694.84;4955535;28;73190;-61